sensor_id;sensor_type;location;lat;lon;timestamp;temperature;humidity
36424;DHT22;22458;45.328;9.514;2022-11-12T00:00:17;12.40;90.10
36424;DHT22;22458;45.328;9.514;2022-11-12T00:03:02;12.30;90.30
36424;DHT22;22458;45.328;9.514;2022-11-12T00:05:47;12.30;90.40
36424;DHT22;22458;45.328;9.514;2022-11-12T00:08:32;12.20;90.40
36424;DHT22;22458;45.328;9.514;2022-11-12T00:11:16;12.20;90.50
36424;DHT22;22458;45.328;9.514;2022-11-12T00:14:00;12.10;90.70
36424;DHT22;22458;45.328;9.514;2022-11-12T00:16:44;12.20;90.70
36424;DHT22;22458;45.328;9.514;2022-11-12T00:19:28;12.40;90.50
36424;DHT22;22458;45.328;9.514;2022-11-12T00:22:12;12.40;90.30
36424;DHT22;22458;45.328;9.514;2022-11-12T00:24:57;12.30;90.50
36424;DHT22;22458;45.328;9.514;2022-11-12T00:27:44;12.20;90.70
36424;DHT22;22458;45.328;9.514;2022-11-12T00:30:28;12.20;90.80
36424;DHT22;22458;45.328;9.514;2022-11-12T00:33:12;12.30;90.90
36424;DHT22;22458;45.328;9.514;2022-11-12T00:35:58;12.30;90.80
36424;DHT22;22458;45.328;9.514;2022-11-12T00:38:43;12.30;90.80
36424;DHT22;22458;45.328;9.514;2022-11-12T00:41:27;12.50;90.80
36424;DHT22;22458;45.328;9.514;2022-11-12T00:44:11;12.50;90.70
36424;DHT22;22458;45.328;9.514;2022-11-12T00:46:56;12.50;90.80
36424;DHT22;22458;45.328;9.514;2022-11-12T00:49:40;12.40;91.00
36424;DHT22;22458;45.328;9.514;2022-11-12T00:52:24;12.50;91.00
36424;DHT22;22458;45.328;9.514;2022-11-12T00:55:08;12.60;90.90
36424;DHT22;22458;45.328;9.514;2022-11-12T00:57:53;12.80;90.60
36424;DHT22;22458;45.328;9.514;2022-11-12T01:00:37;12.90;90.50
36424;DHT22;22458;45.328;9.514;2022-11-12T01:03:20;13.00;90.40
36424;DHT22;22458;45.328;9.514;2022-11-12T01:06:07;12.90;90.50
36424;DHT22;22458;45.328;9.514;2022-11-12T01:08:53;12.90;90.50
36424;DHT22;22458;45.328;9.514;2022-11-12T01:11:39;12.90;90.50
36424;DHT22;22458;45.328;9.514;2022-11-12T01:14:24;12.80;90.60
36424;DHT22;22458;45.328;9.514;2022-11-12T01:17:08;13.00;90.50
36424;DHT22;22458;45.328;9.514;2022-11-12T01:19:52;13.10;90.30
36424;DHT22;22458;45.328;9.514;2022-11-12T01:22:36;13.20;90.20
36424;DHT22;22458;45.328;9.514;2022-11-12T01:25:20;13.30;90.10
36424;DHT22;22458;45.328;9.514;2022-11-12T01:28:04;13.40;90.00
36424;DHT22;22458;45.328;9.514;2022-11-12T01:30:48;13.40;90.00
36424;DHT22;22458;45.328;9.514;2022-11-12T01:33:33;13.40;90.00
36424;DHT22;22458;45.328;9.514;2022-11-12T01:36:17;13.50;90.00
36424;DHT22;22458;45.328;9.514;2022-11-12T01:39:06;13.50;89.90
36424;DHT22;22458;45.328;9.514;2022-11-12T01:41:50;13.50;89.90
36424;DHT22;22458;45.328;9.514;2022-11-12T01:44:38;13.60;89.70
36424;DHT22;22458;45.328;9.514;2022-11-12T01:47:28;13.60;89.70
36424;DHT22;22458;45.328;9.514;2022-11-12T01:50:25;13.70;89.70
36424;DHT22;22458;45.328;9.514;2022-11-12T01:53:11;13.70;89.70
36424;DHT22;22458;45.328;9.514;2022-11-12T01:56:00;13.60;89.80
36424;DHT22;22458;45.328;9.514;2022-11-12T01:58:46;13.60;90.00
36424;DHT22;22458;45.328;9.514;2022-11-12T02:01:33;13.60;90.00
36424;DHT22;22458;45.328;9.514;2022-11-12T02:04:19;13.40;90.30
36424;DHT22;22458;45.328;9.514;2022-11-12T02:07:05;13.30;90.70
36424;DHT22;22458;45.328;9.514;2022-11-12T02:09:49;13.30;90.90
36424;DHT22;22458;45.328;9.514;2022-11-12T02:12:36;13.40;90.90
36424;DHT22;22458;45.328;9.514;2022-11-12T02:15:40;13.40;90.80
36424;DHT22;22458;45.328;9.514;2022-11-12T02:18:24;13.40;90.80
36424;DHT22;22458;45.328;9.514;2022-11-12T02:21:08;13.20;91.10
36424;DHT22;22458;45.328;9.514;2022-11-12T02:24:00;13.00;91.50
36424;DHT22;22458;45.328;9.514;2022-11-12T02:26:50;13.20;91.40
36424;DHT22;22458;45.328;9.514;2022-11-12T02:29:35;13.40;91.20
36424;DHT22;22458;45.328;9.514;2022-11-12T02:32:29;13.50;91.00
36424;DHT22;22458;45.328;9.514;2022-11-12T02:35:13;13.50;91.00
36424;DHT22;22458;45.328;9.514;2022-11-12T02:37:58;13.40;91.00
36424;DHT22;22458;45.328;9.514;2022-11-12T02:40:42;13.40;91.20
36424;DHT22;22458;45.328;9.514;2022-11-12T02:43:26;13.30;91.30
36424;DHT22;22458;45.328;9.514;2022-11-12T02:46:11;13.30;91.50
36424;DHT22;22458;45.328;9.514;2022-11-12T02:48:55;13.10;91.70
36424;DHT22;22458;45.328;9.514;2022-11-12T02:51:39;13.10;91.90
36424;DHT22;22458;45.328;9.514;2022-11-12T02:54:23;12.90;92.20
36424;DHT22;22458;45.328;9.514;2022-11-12T02:57:07;12.70;92.60
36424;DHT22;22458;45.328;9.514;2022-11-12T02:59:51;12.60;92.90
36424;DHT22;22458;45.328;9.514;2022-11-12T03:02:36;12.50;93.10
36424;DHT22;22458;45.328;9.514;2022-11-12T03:05:27;12.50;93.20
36424;DHT22;22458;45.328;9.514;2022-11-12T03:08:11;12.50;93.30
36424;DHT22;22458;45.328;9.514;2022-11-12T03:10:55;12.40;93.50
36424;DHT22;22458;45.328;9.514;2022-11-12T03:13:40;12.50;93.60
36424;DHT22;22458;45.328;9.514;2022-11-12T03:16:24;12.60;93.50
36424;DHT22;22458;45.328;9.514;2022-11-12T03:19:08;12.80;93.20
36424;DHT22;22458;45.328;9.514;2022-11-12T03:21:52;12.80;93.30
36424;DHT22;22458;45.328;9.514;2022-11-12T03:24:36;13.00;93.00
36424;DHT22;22458;45.328;9.514;2022-11-12T03:27:20;13.20;92.70
36424;DHT22;22458;45.328;9.514;2022-11-12T03:30:05;13.10;92.80
36424;DHT22;22458;45.328;9.514;2022-11-12T03:32:49;12.80;93.10
36424;DHT22;22458;45.328;9.514;2022-11-12T03:35:34;12.60;93.60
36424;DHT22;22458;45.328;9.514;2022-11-12T03:38:18;12.40;94.00
36424;DHT22;22458;45.328;9.514;2022-11-12T03:41:03;12.20;94.20
36424;DHT22;22458;45.328;9.514;2022-11-12T03:43:46;12.10;94.40
36424;DHT22;22458;45.328;9.514;2022-11-12T03:46:30;11.90;94.70
36424;DHT22;22458;45.328;9.514;2022-11-12T03:49:15;11.90;94.90
36424;DHT22;22458;45.328;9.514;2022-11-12T03:51:59;11.90;94.90
36424;DHT22;22458;45.328;9.514;2022-11-12T03:54:43;11.90;94.90
36424;DHT22;22458;45.328;9.514;2022-11-12T03:57:27;11.90;95.00
36424;DHT22;22458;45.328;9.514;2022-11-12T04:00:12;11.80;95.10
36424;DHT22;22458;45.328;9.514;2022-11-12T04:02:57;11.70;95.30
36424;DHT22;22458;45.328;9.514;2022-11-12T04:05:41;11.80;95.30
36424;DHT22;22458;45.328;9.514;2022-11-12T04:08:44;12.00;95.10
36424;DHT22;22458;45.328;9.514;2022-11-12T04:11:28;12.00;94.90
36424;DHT22;22458;45.328;9.514;2022-11-12T04:14:12;11.80;94.90
36424;DHT22;22458;45.328;9.514;2022-11-12T04:16:56;11.70;95.20
36424;DHT22;22458;45.328;9.514;2022-11-12T04:19:59;11.60;95.20
36424;DHT22;22458;45.328;9.514;2022-11-12T04:23:02;11.60;95.40
36424;DHT22;22458;45.328;9.514;2022-11-12T04:25:46;11.70;95.20
36424;DHT22;22458;45.328;9.514;2022-11-12T04:28:49;11.80;95.20
36424;DHT22;22458;45.328;9.514;2022-11-12T04:31:54;11.80;95.20
36424;DHT22;22458;45.328;9.514;2022-11-12T04:34:38;11.70;95.20
36424;DHT22;22458;45.328;9.514;2022-11-12T04:37:25;11.60;95.40
36424;DHT22;22458;45.328;9.514;2022-11-12T04:40:19;11.60;95.60
36424;DHT22;22458;45.328;9.514;2022-11-12T04:43:22;11.70;95.50
36424;DHT22;22458;45.328;9.514;2022-11-12T04:46:26;11.90;95.30
36424;DHT22;22458;45.328;9.514;2022-11-12T04:49:10;12.00;95.00
36424;DHT22;22458;45.328;9.514;2022-11-12T04:51:54;12.10;94.80
36424;DHT22;22458;45.328;9.514;2022-11-12T04:54:51;12.20;94.70
36424;DHT22;22458;45.328;9.514;2022-11-12T04:57:36;12.20;94.60
36424;DHT22;22458;45.328;9.514;2022-11-12T05:00:21;12.30;94.50
36424;DHT22;22458;45.328;9.514;2022-11-12T05:03:05;12.30;94.40
36424;DHT22;22458;45.328;9.514;2022-11-12T05:05:49;12.20;94.60
36424;DHT22;22458;45.328;9.514;2022-11-12T05:08:33;12.10;94.90
36424;DHT22;22458;45.328;9.514;2022-11-12T05:11:17;12.00;95.00
36424;DHT22;22458;45.328;9.514;2022-11-12T05:14:01;12.00;95.10
36424;DHT22;22458;45.328;9.514;2022-11-12T05:16:46;11.80;95.20
36424;DHT22;22458;45.328;9.514;2022-11-12T05:19:30;11.70;95.30
36424;DHT22;22458;45.328;9.514;2022-11-12T05:22:15;11.70;95.40
36424;DHT22;22458;45.328;9.514;2022-11-12T05:24:59;11.60;95.30
36424;DHT22;22458;45.328;9.514;2022-11-12T05:27:43;11.50;95.50
36424;DHT22;22458;45.328;9.514;2022-11-12T05:30:27;11.20;95.70
36424;DHT22;22458;45.328;9.514;2022-11-12T05:33:13;11.40;95.80
36424;DHT22;22458;45.328;9.514;2022-11-12T05:35:57;11.40;95.70
36424;DHT22;22458;45.328;9.514;2022-11-12T05:38:43;11.40;95.60
36424;DHT22;22458;45.328;9.514;2022-11-12T05:41:27;11.40;96.00
36424;DHT22;22458;45.328;9.514;2022-11-12T05:44:11;11.40;95.70
36424;DHT22;22458;45.328;9.514;2022-11-12T05:46:55;11.50;95.70
36424;DHT22;22458;45.328;9.514;2022-11-12T05:49:40;11.40;95.60
36424;DHT22;22458;45.328;9.514;2022-11-12T05:52:24;11.40;95.70
36424;DHT22;22458;45.328;9.514;2022-11-12T05:55:08;11.40;95.70
36424;DHT22;22458;45.328;9.514;2022-11-12T05:57:53;11.40;95.70
36424;DHT22;22458;45.328;9.514;2022-11-12T06:00:37;11.60;95.60
36424;DHT22;22458;45.328;9.514;2022-11-12T06:03:25;11.70;95.40
36424;DHT22;22458;45.328;9.514;2022-11-12T06:06:12;11.60;95.40
36424;DHT22;22458;45.328;9.514;2022-11-12T06:08:56;11.80;95.40
36424;DHT22;22458;45.328;9.514;2022-11-12T06:11:40;12.10;94.90
36424;DHT22;22458;45.328;9.514;2022-11-12T06:14:24;12.00;94.70
36424;DHT22;22458;45.328;9.514;2022-11-12T06:17:08;11.90;94.90
36424;DHT22;22458;45.328;9.514;2022-11-12T06:19:52;11.60;95.10
36424;DHT22;22458;45.328;9.514;2022-11-12T06:22:36;11.60;95.30
36424;DHT22;22458;45.328;9.514;2022-11-12T06:25:20;11.80;95.20
36424;DHT22;22458;45.328;9.514;2022-11-12T06:28:04;11.90;94.60
36424;DHT22;22458;45.328;9.514;2022-11-12T06:30:49;11.90;94.60
36424;DHT22;22458;45.328;9.514;2022-11-12T06:33:33;11.70;94.80
36424;DHT22;22458;45.328;9.514;2022-11-12T06:36:19;11.60;95.00
36424;DHT22;22458;45.328;9.514;2022-11-12T06:39:03;11.70;94.90
36424;DHT22;22458;45.328;9.514;2022-11-12T06:41:48;11.90;94.70
36424;DHT22;22458;45.328;9.514;2022-11-12T06:44:32;11.70;94.80
36424;DHT22;22458;45.328;9.514;2022-11-12T06:47:16;11.50;95.00
36424;DHT22;22458;45.328;9.514;2022-11-12T06:50:00;11.30;95.40
36424;DHT22;22458;45.328;9.514;2022-11-12T06:52:45;11.10;95.60
36424;DHT22;22458;45.328;9.514;2022-11-12T06:55:29;11.00;95.70
36424;DHT22;22458;45.328;9.514;2022-11-12T06:58:14;11.20;95.60
36424;DHT22;22458;45.328;9.514;2022-11-12T07:01:10;11.20;95.40
36424;DHT22;22458;45.328;9.514;2022-11-12T07:03:54;11.10;95.50
36424;DHT22;22458;45.328;9.514;2022-11-12T07:06:41;11.00;95.70
36424;DHT22;22458;45.328;9.514;2022-11-12T07:09:25;10.90;95.70
36424;DHT22;22458;45.328;9.514;2022-11-12T07:12:10;10.90;95.80
36424;DHT22;22458;45.328;9.514;2022-11-12T07:14:54;10.80;95.90
36424;DHT22;22458;45.328;9.514;2022-11-12T07:17:39;10.90;96.00
36424;DHT22;22458;45.328;9.514;2022-11-12T07:20:23;11.00;95.90
36424;DHT22;22458;45.328;9.514;2022-11-12T07:23:07;11.00;95.70
36424;DHT22;22458;45.328;9.514;2022-11-12T07:28:48;11.10;95.70
36424;DHT22;22458;45.328;9.514;2022-11-12T07:31:33;10.90;95.70
36424;DHT22;22458;45.328;9.514;2022-11-12T07:34:18;11.00;95.90
36424;DHT22;22458;45.328;9.514;2022-11-12T07:37:02;11.00;95.90
36424;DHT22;22458;45.328;9.514;2022-11-12T07:39:46;11.10;95.90
36424;DHT22;22458;45.328;9.514;2022-11-12T07:42:34;11.10;95.80
36424;DHT22;22458;45.328;9.514;2022-11-12T07:45:18;11.10;95.90
36424;DHT22;22458;45.328;9.514;2022-11-12T07:48:02;11.20;95.80
36424;DHT22;22458;45.328;9.514;2022-11-12T07:50:47;11.20;95.90
36424;DHT22;22458;45.328;9.514;2022-11-12T07:53:33;11.30;95.80
36424;DHT22;22458;45.328;9.514;2022-11-12T07:56:19;11.30;95.70
36424;DHT22;22458;45.328;9.514;2022-11-12T07:59:03;11.20;95.80
36424;DHT22;22458;45.328;9.514;2022-11-12T08:01:49;11.20;95.90
36424;DHT22;22458;45.328;9.514;2022-11-12T08:04:33;11.20;96.00
36424;DHT22;22458;45.328;9.514;2022-11-12T08:07:17;11.20;95.90
36424;DHT22;22458;45.328;9.514;2022-11-12T08:10:01;11.20;96.20
36424;DHT22;22458;45.328;9.514;2022-11-12T08:12:46;11.10;96.30
36424;DHT22;22458;45.328;9.514;2022-11-12T08:15:31;11.10;96.50
36424;DHT22;22458;45.328;9.514;2022-11-12T08:18:16;11.00;96.60
36424;DHT22;22458;45.328;9.514;2022-11-12T08:21:02;11.00;96.70
36424;DHT22;22458;45.328;9.514;2022-11-12T08:23:46;11.00;96.80
36424;DHT22;22458;45.328;9.514;2022-11-12T08:26:31;11.10;96.80
36424;DHT22;22458;45.328;9.514;2022-11-12T08:29:15;11.20;96.80
36424;DHT22;22458;45.328;9.514;2022-11-12T08:31:59;11.30;96.70
36424;DHT22;22458;45.328;9.514;2022-11-12T08:34:44;11.40;96.60
36424;DHT22;22458;45.328;9.514;2022-11-12T08:37:28;11.50;96.50
36424;DHT22;22458;45.328;9.514;2022-11-12T08:40:12;11.50;96.50
36424;DHT22;22458;45.328;9.514;2022-11-12T08:43:05;11.60;96.50
36424;DHT22;22458;45.328;9.514;2022-11-12T08:45:49;11.60;96.50
36424;DHT22;22458;45.328;9.514;2022-11-12T08:48:34;11.60;96.80
36424;DHT22;22458;45.328;9.514;2022-11-12T08:51:18;11.60;96.50
36424;DHT22;22458;45.328;9.514;2022-11-12T08:54:03;11.60;96.50
36424;DHT22;22458;45.328;9.514;2022-11-12T08:56:47;11.70;96.40
36424;DHT22;22458;45.328;9.514;2022-11-12T08:59:32;11.70;96.50
36424;DHT22;22458;45.328;9.514;2022-11-12T09:02:16;11.80;96.60
36424;DHT22;22458;45.328;9.514;2022-11-12T09:05:00;11.90;96.50
36424;DHT22;22458;45.328;9.514;2022-11-12T09:07:44;12.10;96.30
36424;DHT22;22458;45.328;9.514;2022-11-12T09:10:29;12.10;96.30
36424;DHT22;22458;45.328;9.514;2022-11-12T09:13:14;12.10;96.20
36424;DHT22;22458;45.328;9.514;2022-11-12T09:16:02;12.20;96.20
36424;DHT22;22458;45.328;9.514;2022-11-12T09:18:47;12.20;96.20
36424;DHT22;22458;45.328;9.514;2022-11-12T09:21:31;12.20;96.20
36424;DHT22;22458;45.328;9.514;2022-11-12T09:24:15;12.10;96.10
36424;DHT22;22458;45.328;9.514;2022-11-12T09:26:59;12.10;96.30
36424;DHT22;22458;45.328;9.514;2022-11-12T09:29:43;12.00;96.40
36424;DHT22;22458;45.328;9.514;2022-11-12T09:32:27;12.10;96.50
36424;DHT22;22458;45.328;9.514;2022-11-12T09:35:12;12.10;96.50
36424;DHT22;22458;45.328;9.514;2022-11-12T09:37:57;12.20;96.50
36424;DHT22;22458;45.328;9.514;2022-11-12T09:43:48;12.40;96.50
36424;DHT22;22458;45.328;9.514;2022-11-12T09:46:53;12.40;96.40
36424;DHT22;22458;45.328;9.514;2022-11-12T09:52:56;12.40;96.40
36424;DHT22;22458;45.328;9.514;2022-11-12T09:55:47;12.50;96.50
36424;DHT22;22458;45.328;9.514;2022-11-12T09:58:32;12.70;96.30
36424;DHT22;22458;45.328;9.514;2022-11-12T10:01:38;12.90;96.10
36424;DHT22;22458;45.328;9.514;2022-11-12T10:14:26;13.00;95.90
36424;DHT22;22458;45.328;9.514;2022-11-12T10:17:36;13.00;95.90
36424;DHT22;22458;45.328;9.514;2022-11-12T10:20:48;13.10;96.10
36424;DHT22;22458;45.328;9.514;2022-11-12T10:23:44;13.30;95.80
36424;DHT22;22458;45.328;9.514;2022-11-12T10:26:30;13.20;95.70
36424;DHT22;22458;45.328;9.514;2022-11-12T10:29:45;13.30;95.80
36424;DHT22;22458;45.328;9.514;2022-11-12T10:32:28;13.40;95.70
36424;DHT22;22458;45.328;9.514;2022-11-12T10:35:16;13.50;95.60
36424;DHT22;22458;45.328;9.514;2022-11-12T10:38:04;13.50;95.50
36424;DHT22;22458;45.328;9.514;2022-11-12T10:40:49;13.70;95.40
36424;DHT22;22458;45.328;9.514;2022-11-12T10:43:33;13.80;95.30
36424;DHT22;22458;45.328;9.514;2022-11-12T10:46:21;13.70;95.20
36424;DHT22;22458;45.328;9.514;2022-11-12T10:51:59;13.90;95.10
36424;DHT22;22458;45.328;9.514;2022-11-12T10:54:43;13.90;94.90
36424;DHT22;22458;45.328;9.514;2022-11-12T10:57:28;13.90;94.90
36424;DHT22;22458;45.328;9.514;2022-11-12T11:00:14;13.90;94.80
36424;DHT22;22458;45.328;9.514;2022-11-12T11:03:03;14.00;94.80
36424;DHT22;22458;45.328;9.514;2022-11-12T11:05:50;14.10;94.70
36424;DHT22;22458;45.328;9.514;2022-11-12T11:11:30;14.00;94.60
36424;DHT22;22458;45.328;9.514;2022-11-12T11:17:05;14.20;94.50
36424;DHT22;22458;45.328;9.514;2022-11-12T11:19:52;14.30;94.30
36424;DHT22;22458;45.328;9.514;2022-11-12T11:22:44;14.30;94.30
36424;DHT22;22458;45.328;9.514;2022-11-12T11:25:32;14.40;94.20
36424;DHT22;22458;45.328;9.514;2022-11-12T11:28:32;14.50;94.20
36424;DHT22;22458;45.328;9.514;2022-11-12T11:56:11;14.90;93.60
36424;DHT22;22458;45.328;9.514;2022-11-12T12:05:28;15.00;93.60
36424;DHT22;22458;45.328;9.514;2022-11-12T12:11:25;15.20;93.30
36424;DHT22;22458;45.328;9.514;2022-11-12T12:17:41;15.30;93.30
36424;DHT22;22458;45.328;9.514;2022-11-12T12:23:28;15.50;93.00
36424;DHT22;22458;45.328;9.514;2022-11-12T12:26:44;15.60;92.90
36424;DHT22;22458;45.328;9.514;2022-11-12T12:29:46;15.50;92.70
36424;DHT22;22458;45.328;9.514;2022-11-12T12:36:10;15.40;92.80
36424;DHT22;22458;45.328;9.514;2022-11-12T12:41:57;15.70;92.60
36424;DHT22;22458;45.328;9.514;2022-11-12T12:48:18;15.80;92.50
36424;DHT22;22458;45.328;9.514;2022-11-12T12:51:03;15.70;92.60
36424;DHT22;22458;45.328;9.514;2022-11-12T12:53:49;15.60;92.70
36424;DHT22;22458;45.328;9.514;2022-11-12T12:59:23;15.60;92.80
36424;DHT22;22458;45.328;9.514;2022-11-12T13:02:21;15.70;92.80
36424;DHT22;22458;45.328;9.514;2022-11-12T13:05:42;15.80;92.70
36424;DHT22;22458;45.328;9.514;2022-11-12T13:08:25;15.80;92.60
36424;DHT22;22458;45.328;9.514;2022-11-12T13:11:09;15.70;92.60
36424;DHT22;22458;45.328;9.514;2022-11-12T13:17:45;15.60;92.80
36424;DHT22;22458;45.328;9.514;2022-11-12T13:20:37;15.70;92.80
36424;DHT22;22458;45.328;9.514;2022-11-12T13:23:54;15.70;92.90
36424;DHT22;22458;45.328;9.514;2022-11-12T13:26:59;15.70;92.70
36424;DHT22;22458;45.328;9.514;2022-11-12T13:29:45;15.60;92.80
36424;DHT22;22458;45.328;9.514;2022-11-12T13:32:32;15.60;92.80
36424;DHT22;22458;45.328;9.514;2022-11-12T13:35:37;15.60;92.90
36424;DHT22;22458;45.328;9.514;2022-11-12T13:38:22;15.60;93.10
36424;DHT22;22458;45.328;9.514;2022-11-12T13:41:13;15.60;93.00
36424;DHT22;22458;45.328;9.514;2022-11-12T13:44:04;15.70;92.90
36424;DHT22;22458;45.328;9.514;2022-11-12T13:46:49;15.70;92.80
36424;DHT22;22458;45.328;9.514;2022-11-12T13:49:36;15.70;92.70
36424;DHT22;22458;45.328;9.514;2022-11-12T13:52:21;15.70;92.60
36424;DHT22;22458;45.328;9.514;2022-11-12T13:55:14;15.80;92.50
36424;DHT22;22458;45.328;9.514;2022-11-12T13:57:59;15.90;92.40
36424;DHT22;22458;45.328;9.514;2022-11-12T14:00:57;15.90;92.40
36424;DHT22;22458;45.328;9.514;2022-11-12T14:03:45;15.80;92.50
36424;DHT22;22458;45.328;9.514;2022-11-12T14:25:00;15.90;92.60
36424;DHT22;22458;45.328;9.514;2022-11-12T14:27:49;15.90;92.40
36424;DHT22;22458;45.328;9.514;2022-11-12T14:30:42;15.80;92.70
36424;DHT22;22458;45.328;9.514;2022-11-12T14:33:29;15.80;92.50
36424;DHT22;22458;45.328;9.514;2022-11-12T14:36:15;15.70;92.50
36424;DHT22;22458;45.328;9.514;2022-11-12T14:39:02;15.70;92.60
36424;DHT22;22458;45.328;9.514;2022-11-12T14:41:47;15.80;92.60
36424;DHT22;22458;45.328;9.514;2022-11-12T14:44:37;15.90;92.50
36424;DHT22;22458;45.328;9.514;2022-11-12T14:47:21;16.00;92.30
36424;DHT22;22458;45.328;9.514;2022-11-12T14:50:46;16.10;92.20
36424;DHT22;22458;45.328;9.514;2022-11-12T14:53:38;16.20;92.00
36424;DHT22;22458;45.328;9.514;2022-11-12T14:56:33;16.30;91.80
36424;DHT22;22458;45.328;9.514;2022-11-12T14:59:20;16.20;91.80
36424;DHT22;22458;45.328;9.514;2022-11-12T15:02:14;16.10;92.00
36424;DHT22;22458;45.328;9.514;2022-11-12T15:05:01;16.00;92.20
36424;DHT22;22458;45.328;9.514;2022-11-12T15:08:03;15.70;92.40
36424;DHT22;22458;45.328;9.514;2022-11-12T15:10:48;15.70;92.60
36424;DHT22;22458;45.328;9.514;2022-11-12T15:13:37;15.60;92.70
36424;DHT22;22458;45.328;9.514;2022-11-12T15:16:26;15.80;92.50
36424;DHT22;22458;45.328;9.514;2022-11-12T15:19:23;15.90;92.40
36424;DHT22;22458;45.328;9.514;2022-11-12T15:22:18;15.90;92.30
36424;DHT22;22458;45.328;9.514;2022-11-12T15:25:26;16.10;92.10
36424;DHT22;22458;45.328;9.514;2022-11-12T15:28:23;16.00;92.00
36424;DHT22;22458;45.328;9.514;2022-11-12T15:31:16;15.90;92.20
36424;DHT22;22458;45.328;9.514;2022-11-12T15:37:25;15.80;92.20
36424;DHT22;22458;45.328;9.514;2022-11-12T15:40:14;15.90;92.20
36424;DHT22;22458;45.328;9.514;2022-11-12T15:43:00;16.00;92.00
36424;DHT22;22458;45.328;9.514;2022-11-12T15:45:48;16.10;91.90
36424;DHT22;22458;45.328;9.514;2022-11-12T15:48:33;16.20;91.80
36424;DHT22;22458;45.328;9.514;2022-11-12T15:51:17;16.10;91.70
36424;DHT22;22458;45.328;9.514;2022-11-12T15:54:02;16.20;91.70
36424;DHT22;22458;45.328;9.514;2022-11-12T15:56:47;16.20;91.50
36424;DHT22;22458;45.328;9.514;2022-11-12T15:59:31;16.20;91.50
36424;DHT22;22458;45.328;9.514;2022-11-12T16:02:15;16.10;91.60
36424;DHT22;22458;45.328;9.514;2022-11-12T16:05:00;16.10;91.60
36424;DHT22;22458;45.328;9.514;2022-11-12T16:07:45;16.10;91.60
36424;DHT22;22458;45.328;9.514;2022-11-12T16:10:29;16.10;91.50
36424;DHT22;22458;45.328;9.514;2022-11-12T16:13:26;16.00;91.60
36424;DHT22;22458;45.328;9.514;2022-11-12T16:16:11;16.00;91.60
36424;DHT22;22458;45.328;9.514;2022-11-12T16:18:58;16.10;91.60
36424;DHT22;22458;45.328;9.514;2022-11-12T16:21:42;16.10;91.50
36424;DHT22;22458;45.328;9.514;2022-11-12T16:24:26;16.00;91.40
36424;DHT22;22458;45.328;9.514;2022-11-12T16:27:12;16.00;91.50
36424;DHT22;22458;45.328;9.514;2022-11-12T16:29:56;16.00;91.50
36424;DHT22;22458;45.328;9.514;2022-11-12T16:32:41;16.00;91.40
36424;DHT22;22458;45.328;9.514;2022-11-12T16:35:27;16.10;91.30
36424;DHT22;22458;45.328;9.514;2022-11-12T16:38:14;16.10;91.30
36424;DHT22;22458;45.328;9.514;2022-11-12T16:40:59;16.10;91.30
36424;DHT22;22458;45.328;9.514;2022-11-12T16:43:43;16.00;91.30
36424;DHT22;22458;45.328;9.514;2022-11-12T16:46:29;16.00;91.30
36424;DHT22;22458;45.328;9.514;2022-11-12T16:49:14;16.00;91.30
36424;DHT22;22458;45.328;9.514;2022-11-12T16:51:58;16.00;91.30
36424;DHT22;22458;45.328;9.514;2022-11-12T16:54:43;16.00;91.30
36424;DHT22;22458;45.328;9.514;2022-11-12T16:57:27;16.00;91.20
36424;DHT22;22458;45.328;9.514;2022-11-12T17:00:14;16.00;91.20
36424;DHT22;22458;45.328;9.514;2022-11-12T17:02:58;16.00;91.20
36424;DHT22;22458;45.328;9.514;2022-11-12T17:05:42;16.00;91.20
36424;DHT22;22458;45.328;9.514;2022-11-12T17:08:26;15.90;91.20
36424;DHT22;22458;45.328;9.514;2022-11-12T17:11:15;15.90;91.20
36424;DHT22;22458;45.328;9.514;2022-11-12T17:14:01;15.90;91.40
36424;DHT22;22458;45.328;9.514;2022-11-12T17:16:45;15.80;91.40
36424;DHT22;22458;45.328;9.514;2022-11-12T17:19:29;15.90;91.20
36424;DHT22;22458;45.328;9.514;2022-11-12T17:22:13;16.00;91.00
36424;DHT22;22458;45.328;9.514;2022-11-12T17:24:57;16.10;90.70
36424;DHT22;22458;45.328;9.514;2022-11-12T17:27:41;16.20;90.50
36424;DHT22;22458;45.328;9.514;2022-11-12T17:30:26;16.30;90.30
36424;DHT22;22458;45.328;9.514;2022-11-12T17:33:10;16.30;90.30
36424;DHT22;22458;45.328;9.514;2022-11-12T17:35:59;16.30;90.10
36424;DHT22;22458;45.328;9.514;2022-11-12T17:38:44;16.40;90.00
36424;DHT22;22458;45.328;9.514;2022-11-12T17:41:28;16.40;90.00
36424;DHT22;22458;45.328;9.514;2022-11-12T17:44:17;16.40;90.00
36424;DHT22;22458;45.328;9.514;2022-11-12T17:47:02;16.40;90.00
36424;DHT22;22458;45.328;9.514;2022-11-12T17:49:47;16.40;90.00
36424;DHT22;22458;45.328;9.514;2022-11-12T17:52:31;16.40;89.90
36424;DHT22;22458;45.328;9.514;2022-11-12T17:55:15;16.40;89.80
36424;DHT22;22458;45.328;9.514;2022-11-12T17:57:59;16.40;89.60
36424;DHT22;22458;45.328;9.514;2022-11-12T18:00:43;16.40;89.60
36424;DHT22;22458;45.328;9.514;2022-11-12T18:03:28;16.40;89.50
36424;DHT22;22458;45.328;9.514;2022-11-12T18:06:14;16.30;89.50
36424;DHT22;22458;45.328;9.514;2022-11-12T18:09:05;16.20;89.70
36424;DHT22;22458;45.328;9.514;2022-11-12T18:11:51;16.00;89.80
36424;DHT22;22458;45.328;9.514;2022-11-12T18:14:37;15.90;90.00
36424;DHT22;22458;45.328;9.514;2022-11-12T18:17:21;16.00;90.00
36424;DHT22;22458;45.328;9.514;2022-11-12T18:20:06;16.00;89.60
36424;DHT22;22458;45.328;9.514;2022-11-12T18:22:50;16.00;89.50
36424;DHT22;22458;45.328;9.514;2022-11-12T18:25:35;16.10;89.60
36424;DHT22;22458;45.328;9.514;2022-11-12T18:28:21;16.10;89.50
36424;DHT22;22458;45.328;9.514;2022-11-12T18:31:06;16.10;89.50
36424;DHT22;22458;45.328;9.514;2022-11-12T18:33:52;16.10;89.30
36424;DHT22;22458;45.328;9.514;2022-11-12T18:36:36;16.10;89.40
36424;DHT22;22458;45.328;9.514;2022-11-12T18:39:21;16.10;89.30
36424;DHT22;22458;45.328;9.514;2022-11-12T18:42:05;16.20;89.20
36424;DHT22;22458;45.328;9.514;2022-11-12T18:44:49;16.10;89.10
36424;DHT22;22458;45.328;9.514;2022-11-12T18:47:33;16.10;89.10
36424;DHT22;22458;45.328;9.514;2022-11-12T18:50:17;16.10;89.00
36424;DHT22;22458;45.328;9.514;2022-11-12T18:53:01;16.10;88.90
36424;DHT22;22458;45.328;9.514;2022-11-12T18:55:45;16.10;88.90
36424;DHT22;22458;45.328;9.514;2022-11-12T18:58:30;16.10;88.80
36424;DHT22;22458;45.328;9.514;2022-11-12T19:01:24;16.00;89.00
36424;DHT22;22458;45.328;9.514;2022-11-12T19:04:09;16.00;89.10
36424;DHT22;22458;45.328;9.514;2022-11-12T19:06:54;16.00;89.00
36424;DHT22;22458;45.328;9.514;2022-11-12T19:09:38;16.10;89.00
36424;DHT22;22458;45.328;9.514;2022-11-12T19:12:22;16.00;89.00
36424;DHT22;22458;45.328;9.514;2022-11-12T19:15:07;15.90;89.10
36424;DHT22;22458;45.328;9.514;2022-11-12T19:17:51;15.90;89.00
36424;DHT22;22458;45.328;9.514;2022-11-12T19:20:36;15.80;89.20